Aviation Digital Data Service (ADDS)

Output produced by METARs form (1838 UTC 18 June 2019)
found at http://www.aviationweather.gov/metar/data/
 
METAR text: VEGT 181830Z 20003KT 3000 BR SCT018 BKN100 30/28 Q1002 NOSIG
Conditions at: VEGT (GAUHATI (IN-AFB), IN) observed 1830 UTC 18 June 2019
Temperature: 30.0°C (86°F)
Dewpoint: 28.0°C (82°F) [RH = 89%]
Pressure (altimeter): 29.59 inches Hg (1002.0 mb)
Winds: from the SSW (200 degrees) at 3 MPH (3 knots; 1.5 m/s)
Visibility: 1.86 miles (2.99 km)
Ceiling: 10000 feet AGL
Clouds: scattered clouds at 1800 feet AGL
broken clouds at 10000 feet AGL
Weather: BR  (mist)

METAR text: VEGT 181800Z 14004KT 3000 BR SCT018 BKN100 31/29 Q1002 NOSIG
Conditions at: VEGT (GAUHATI (IN-AFB), IN) observed 1800 UTC 18 June 2019
Temperature: 31.0°C (88°F)
Dewpoint: 29.0°C (84°F) [RH = 89%]
Pressure (altimeter): 29.59 inches Hg (1002.0 mb)
Winds: from the SE (140 degrees) at 5 MPH (4 knots; 2.1 m/s)
Visibility: 1.86 miles (2.99 km)
Ceiling: 10000 feet AGL
Clouds: scattered clouds at 1800 feet AGL
broken clouds at 10000 feet AGL
Weather: BR  (mist)

METAR text: VEGT 181730Z 30005KT 3000 BR SCT018 BKN100 31/29 Q1002 NOSIG
Conditions at: VEGT (GAUHATI (IN-AFB), IN) observed 1730 UTC 18 June 2019
Temperature: 31.0°C (88°F)
Dewpoint: 29.0°C (84°F) [RH = 89%]
Pressure (altimeter): 29.59 inches Hg (1002.0 mb)
Winds: from the WNW (300 degrees) at 6 MPH (5 knots; 2.6 m/s)
Visibility: 1.86 miles (2.99 km)
Ceiling: 10000 feet AGL
Clouds: scattered clouds at 1800 feet AGL
broken clouds at 10000 feet AGL
Weather: BR  (mist)

METAR text: VEGT 181700Z 24004KT 3000 BR SCT018 BKN100 31/29 Q1002 NOSIG
Conditions at: VEGT (GAUHATI (IN-AFB), IN) observed 1700 UTC 18 June 2019
Temperature: 31.0°C (88°F)
Dewpoint: 29.0°C (84°F) [RH = 89%]
Pressure (altimeter): 29.59 inches Hg (1002.0 mb)
Winds: from the WSW (240 degrees) at 5 MPH (4 knots; 2.1 m/s)
Visibility: 1.86 miles (2.99 km)
Ceiling: 10000 feet AGL
Clouds: scattered clouds at 1800 feet AGL
broken clouds at 10000 feet AGL
Weather: BR  (mist)

METAR text: VEGT 181630Z 27004KT 3000 BR FEW018 SCT100 31/29 Q1002 NOSIG
Conditions at: VEGT (GAUHATI (IN-AFB), IN) observed 1630 UTC 18 June 2019
Temperature: 31.0°C (88°F)
Dewpoint: 29.0°C (84°F) [RH = 89%]
Pressure (altimeter): 29.59 inches Hg (1002.0 mb)
Winds: from the W (270 degrees) at 5 MPH (4 knots; 2.1 m/s)
Visibility: 1.86 miles (2.99 km)
Ceiling: at least 12,000 feet AGL
Clouds: few clouds at 1800 feet AGL
scattered clouds at 10000 feet AGL
Weather: BR  (mist)

METAR text: VEGT 181600Z 00000KT 3000 BR FEW018 SCT100 31/29 Q1001 NOSIG
Conditions at: VEGT (GAUHATI (IN-AFB), IN) observed 1600 UTC 18 June 2019
Temperature: 31.0°C (88°F)
Dewpoint: 29.0°C (84°F) [RH = 89%]
Pressure (altimeter): 29.56 inches Hg (1001.0 mb)
Winds: calm
Visibility: 1.86 miles (2.99 km)
Ceiling: at least 12,000 feet AGL
Clouds: few clouds at 1800 feet AGL
scattered clouds at 10000 feet AGL
Weather: BR  (mist)

METAR text: VEGT 181530Z 00000KT 3000 BR FEW018 SCT100 31/29 Q1001 NOSIG
Conditions at: VEGT (GAUHATI (IN-AFB), IN) observed 1530 UTC 18 June 2019
Temperature: 31.0°C (88°F)
Dewpoint: 29.0°C (84°F) [RH = 89%]
Pressure (altimeter): 29.56 inches Hg (1001.0 mb)
Winds: calm
Visibility: 1.86 miles (2.99 km)
Ceiling: at least 12,000 feet AGL
Clouds: few clouds at 1800 feet AGL
scattered clouds at 10000 feet AGL
Weather: BR  (mist)

METAR text: VEGT 181500Z 00000KT 3000 BR FEW018 SCT100 31/29 Q1000 NOSIG
Conditions at: VEGT (GAUHATI (IN-AFB), IN) observed 1500 UTC 18 June 2019
Temperature: 31.0°C (88°F)
Dewpoint: 29.0°C (84°F) [RH = 89%]
Pressure (altimeter): 29.53 inches Hg (1000.0 mb)
Winds: calm
Visibility: 1.86 miles (2.99 km)
Ceiling: at least 12,000 feet AGL
Clouds: few clouds at 1800 feet AGL
scattered clouds at 10000 feet AGL
Weather: BR  (mist)

METAR text: VEGT 181430Z 00000KT 3000 BR FEW018 SCT100 31/29 Q1000 NOSIG
Conditions at: VEGT (GAUHATI (IN-AFB), IN) observed 1430 UTC 18 June 2019
Temperature: 31.0°C (88°F)
Dewpoint: 29.0°C (84°F) [RH = 89%]
Pressure (altimeter): 29.53 inches Hg (1000.0 mb)
Winds: calm
Visibility: 1.86 miles (2.99 km)
Ceiling: at least 12,000 feet AGL
Clouds: few clouds at 1800 feet AGL
scattered clouds at 10000 feet AGL
Weather: BR  (mist)

METAR text: VEGT 181400Z 00000KT 3000 BR FEW018 SCT100 31/28 Q1000 NOSIG
Conditions at: VEGT (GAUHATI (IN-AFB), IN) observed 1400 UTC 18 June 2019
Temperature: 31.0°C (88°F)
Dewpoint: 28.0°C (82°F) [RH = 84%]
Pressure (altimeter): 29.53 inches Hg (1000.0 mb)
Winds: calm
Visibility: 1.86 miles (2.99 km)
Ceiling: at least 12,000 feet AGL
Clouds: few clouds at 1800 feet AGL
scattered clouds at 10000 feet AGL
Weather: BR  (mist)

METAR text: VEGT 181330Z 00000KT 4000 BR FEW018 FEW025CB BKN100 32/29 Q0999 NOSIG
Conditions at: VEGT (GAUHATI (IN-AFB), IN) observed 1330 UTC 18 June 2019
Temperature: 32.0°C (90°F)
Dewpoint: 29.0°C (84°F) [RH = 84%]
Pressure (altimeter): 29.50 inches Hg (999.0 mb)
Winds: calm
Visibility: 2.49 miles (4.01 km)
Ceiling: 10000 feet AGL
Clouds: few clouds at 1800 feet AGL
few clouds at 2500 feet AGL
broken clouds at 10000 feet AGL
Weather: BR  (mist)

METAR text: VEGT 181300Z 00000KT 5000 BR FEW018 SCT100 32/28 Q0998 NOSIG
Conditions at: VEGT (GAUHATI (IN-AFB), IN) observed 1300 UTC 18 June 2019
Temperature: 32.0°C (90°F)
Dewpoint: 28.0°C (82°F) [RH = 80%]
Pressure (altimeter): 29.47 inches Hg (998.0 mb)
Winds: calm
Visibility: 3 miles ( 5 km)
Ceiling: at least 12,000 feet AGL
Clouds: few clouds at 1800 feet AGL
scattered clouds at 10000 feet AGL
Weather: BR  (mist)

METAR text: VEGT 181230Z 00000KT 5000 BR FEW018 SCT100 32/28 Q0998 NOSIG
Conditions at: VEGT (GAUHATI (IN-AFB), IN) observed 1230 UTC 18 June 2019
Temperature: 32.0°C (90°F)
Dewpoint: 28.0°C (82°F) [RH = 80%]
Pressure (altimeter): 29.47 inches Hg (998.0 mb)
Winds: calm
Visibility: 3 miles ( 5 km)
Ceiling: at least 12,000 feet AGL
Clouds: few clouds at 1800 feet AGL
scattered clouds at 10000 feet AGL
Weather: BR  (mist)

METAR text: VEGT 181200Z 00000KT 5000 BR FEW018 SCT100 33/28 Q0998 NOSIG
Conditions at: VEGT (GAUHATI (IN-AFB), IN) observed 1200 UTC 18 June 2019
Temperature: 33.0°C (91°F)
Dewpoint: 28.0°C (82°F) [RH = 75%]
Pressure (altimeter): 29.47 inches Hg (998.0 mb)
Winds: calm
Visibility: 3 miles ( 5 km)
Ceiling: at least 12,000 feet AGL
Clouds: few clouds at 1800 feet AGL
scattered clouds at 10000 feet AGL
Weather: BR  (mist)

METAR text: VEGT 181130Z 00000KT 5000 BR FEW018 SCT100 33/28 Q0998 NOSIG
Conditions at: VEGT (GAUHATI (IN-AFB), IN) observed 1130 UTC 18 June 2019
Temperature: 33.0°C (91°F)
Dewpoint: 28.0°C (82°F) [RH = 75%]
Pressure (altimeter): 29.47 inches Hg (998.0 mb)
Winds: calm
Visibility: 3 miles ( 5 km)
Ceiling: at least 12,000 feet AGL
Clouds: few clouds at 1800 feet AGL
scattered clouds at 10000 feet AGL
Weather: BR  (mist)

METAR text: VEGT 181100Z 20004KT 5000 BR FEW018 SCT100 33/28 Q0998 NOSIG
Conditions at: VEGT (GAUHATI (IN-AFB), IN) observed 1100 UTC 18 June 2019
Temperature: 33.0°C (91°F)
Dewpoint: 28.0°C (82°F) [RH = 75%]
Pressure (altimeter): 29.47 inches Hg (998.0 mb)
Winds: from the SSW (200 degrees) at 5 MPH (4 knots; 2.1 m/s)
Visibility: 3 miles ( 5 km)
Ceiling: at least 12,000 feet AGL
Clouds: few clouds at 1800 feet AGL
scattered clouds at 10000 feet AGL
Weather: BR  (mist)

METAR text: VEGT 181030Z 00000KT 5000 BR FEW018 SCT100 33/28 Q0998 NOSIG
Conditions at: VEGT (GAUHATI (IN-AFB), IN) observed 1030 UTC 18 June 2019
Temperature: 33.0°C (91°F)
Dewpoint: 28.0°C (82°F) [RH = 75%]
Pressure (altimeter): 29.47 inches Hg (998.0 mb)
Winds: calm
Visibility: 3 miles ( 5 km)
Ceiling: at least 12,000 feet AGL
Clouds: few clouds at 1800 feet AGL
scattered clouds at 10000 feet AGL
Weather: BR  (mist)

METAR text: VEGT 181000Z 22006KT 5000 BR SCT018 BKN100 33/28 Q0998 NOSIG
Conditions at: VEGT (GAUHATI (IN-AFB), IN) observed 1000 UTC 18 June 2019
Temperature: 33.0°C (91°F)
Dewpoint: 28.0°C (82°F) [RH = 75%]
Pressure (altimeter): 29.47 inches Hg (998.0 mb)
Winds: from the SW (220 degrees) at 7 MPH (6 knots; 3.1 m/s)
Visibility: 3 miles ( 5 km)
Ceiling: 10000 feet AGL
Clouds: scattered clouds at 1800 feet AGL
broken clouds at 10000 feet AGL
Weather: BR  (mist)

METAR text: VEGT 180931Z 22006KT 5000 BR SCT018 BKN100 33/28 Q0999 NOSIG
Conditions at: VEGT (GAUHATI (IN-AFB), IN) observed 0931 UTC 18 June 2019
Temperature: 33.0°C (91°F)
Dewpoint: 28.0°C (82°F) [RH = 75%]
Pressure (altimeter): 29.50 inches Hg (999.0 mb)
Winds: from the SW (220 degrees) at 7 MPH (6 knots; 3.1 m/s)
Visibility: 3 miles ( 5 km)
Ceiling: 10000 feet AGL
Clouds: scattered clouds at 1800 feet AGL
broken clouds at 10000 feet AGL
Weather: BR  (mist)

METAR text: VEGT 180930Z 22006KT 5000 BR SCT018 BKN100 33/28 Q0999 NOSIG
Conditions at: VEGT (GAUHATI (IN-AFB), IN) observed 0930 UTC 18 June 2019
Temperature: 33.0°C (91°F)
Dewpoint: 28.0°C (82°F) [RH = 75%]
Pressure (altimeter): 29.50 inches Hg (999.0 mb)
Winds: from the SW (220 degrees) at 7 MPH (6 knots; 3.1 m/s)
Visibility: 3 miles ( 5 km)
Ceiling: 10000 feet AGL
Clouds: scattered clouds at 1800 feet AGL
broken clouds at 10000 feet AGL
Weather: BR  (mist)

METAR text: VEGT 180900Z 30006KT 4000 BR SCT018 FEW025CB BKN100 33/28 Q0999 NOSIG
Conditions at: VEGT (GAUHATI (IN-AFB), IN) observed 0900 UTC 18 June 2019
Temperature: 33.0°C (91°F)
Dewpoint: 28.0°C (82°F) [RH = 75%]
Pressure (altimeter): 29.50 inches Hg (999.0 mb)
Winds: from the WNW (300 degrees) at 7 MPH (6 knots; 3.1 m/s)
Visibility: 2.49 miles (4.01 km)
Ceiling: 10000 feet AGL
Clouds: scattered clouds at 1800 feet AGL
few clouds at 2500 feet AGL
broken clouds at 10000 feet AGL
Weather: BR  (mist)

METAR text: VEGT 180830Z 00000KT 4000 BR SCT018 BKN100 33/27 Q0999 NOSIG
Conditions at: VEGT (GAUHATI (IN-AFB), IN) observed 0830 UTC 18 June 2019
Temperature: 33.0°C (91°F)
Dewpoint: 27.0°C (81°F) [RH = 71%]
Pressure (altimeter): 29.50 inches Hg (999.0 mb)
Winds: calm
Visibility: 2.49 miles (4.01 km)
Ceiling: 10000 feet AGL
Clouds: scattered clouds at 1800 feet AGL
broken clouds at 10000 feet AGL
Weather: BR  (mist)

METAR text: VEGT 180800Z 24006KT 4000 BR SCT018 BKN100 31/27 Q1001 NOSIG
Conditions at: VEGT (GAUHATI (IN-AFB), IN) observed 0800 UTC 18 June 2019
Temperature: 31.0°C (88°F)
Dewpoint: 27.0°C (81°F) [RH = 79%]
Pressure (altimeter): 29.56 inches Hg (1001.0 mb)
Winds: from the WSW (240 degrees) at 7 MPH (6 knots; 3.1 m/s)
Visibility: 2.49 miles (4.01 km)
Ceiling: 10000 feet AGL
Clouds: scattered clouds at 1800 feet AGL
broken clouds at 10000 feet AGL
Weather: BR  (mist)

METAR text: VEGT 180730Z 27005KT 4000 BR SCT018 FEW025CB BKN100 31/27 Q1000 NOSIG
Conditions at: VEGT (GAUHATI (IN-AFB), IN) observed 0730 UTC 18 June 2019
Temperature: 31.0°C (88°F)
Dewpoint: 27.0°C (81°F) [RH = 79%]
Pressure (altimeter): 29.53 inches Hg (1000.0 mb)
Winds: from the W (270 degrees) at 6 MPH (5 knots; 2.6 m/s)
Visibility: 2.49 miles (4.01 km)
Ceiling: 10000 feet AGL
Clouds: scattered clouds at 1800 feet AGL
few clouds at 2500 feet AGL
broken clouds at 10000 feet AGL
Weather: BR  (mist)

METAR text: VEGT 180700Z 26006KT 4000 BR SCT018 FEW025CB BKN100 32/27 Q1001 NOSIG
Conditions at: VEGT (GAUHATI (IN-AFB), IN) observed 0700 UTC 18 June 2019
Temperature: 32.0°C (90°F)
Dewpoint: 27.0°C (81°F) [RH = 75%]
Pressure (altimeter): 29.56 inches Hg (1001.0 mb)
Winds: from the W (260 degrees) at 7 MPH (6 knots; 3.1 m/s)
Visibility: 2.49 miles (4.01 km)
Ceiling: 10000 feet AGL
Clouds: scattered clouds at 1800 feet AGL
few clouds at 2500 feet AGL
broken clouds at 10000 feet AGL
Weather: BR  (mist)

METAR text: VEGT 180630Z 34007KT 4000 BR SCT018 FEW025CB BKN100 33/28 Q1001 NOSIG
Conditions at: VEGT (GAUHATI (IN-AFB), IN) observed 0630 UTC 18 June 2019
Temperature: 33.0°C (91°F)
Dewpoint: 28.0°C (82°F) [RH = 75%]
Pressure (altimeter): 29.56 inches Hg (1001.0 mb)
Winds: from the NNW (340 degrees) at 8 MPH (7 knots; 3.6 m/s)
Visibility: 2.49 miles (4.01 km)
Ceiling: 10000 feet AGL
Clouds: scattered clouds at 1800 feet AGL
few clouds at 2500 feet AGL
broken clouds at 10000 feet AGL
Weather: BR  (mist)

METAR text: VEGT 180600Z 36007KT 4000 BR SCT018 FEW025CB BKN100 33/28 Q1001 NOSIG
Conditions at: VEGT (GAUHATI (IN-AFB), IN) observed 0600 UTC 18 June 2019
Temperature: 33.0°C (91°F)
Dewpoint: 28.0°C (82°F) [RH = 75%]
Pressure (altimeter): 29.56 inches Hg (1001.0 mb)
Winds: from the N (360 degrees) at 8 MPH (7 knots; 3.6 m/s)
Visibility: 2.49 miles (4.01 km)
Ceiling: 10000 feet AGL
Clouds: scattered clouds at 1800 feet AGL
few clouds at 2500 feet AGL
broken clouds at 10000 feet AGL
Weather: BR  (mist)

METAR text: VEGT 180530Z 34009KT 4000 BR SCT018 FEW025CB BKN100 33/28 Q1002 NOSIG
Conditions at: VEGT (GAUHATI (IN-AFB), IN) observed 0530 UTC 18 June 2019
Temperature: 33.0°C (91°F)
Dewpoint: 28.0°C (82°F) [RH = 75%]
Pressure (altimeter): 29.59 inches Hg (1002.0 mb)
Winds: from the NNW (340 degrees) at 10 MPH (9 knots; 4.6 m/s)
Visibility: 2.49 miles (4.01 km)
Ceiling: 10000 feet AGL
Clouds: scattered clouds at 1800 feet AGL
few clouds at 2500 feet AGL
broken clouds at 10000 feet AGL
Weather: BR  (mist)

METAR text: VEGT 180500Z 01007KT 4000 BR SCT018 FEW025CB BKN100 33/28 Q1002 NOSIG
Conditions at: VEGT (GAUHATI (IN-AFB), IN) observed 0500 UTC 18 June 2019
Temperature: 33.0°C (91°F)
Dewpoint: 28.0°C (82°F) [RH = 75%]
Pressure (altimeter): 29.59 inches Hg (1002.0 mb)
Winds: from the N (10 degrees) at 8 MPH (7 knots; 3.6 m/s)
Visibility: 2.49 miles (4.01 km)
Ceiling: 10000 feet AGL
Clouds: scattered clouds at 1800 feet AGL
few clouds at 2500 feet AGL
broken clouds at 10000 feet AGL
Weather: BR  (mist)

METAR text: VEGT 180430Z 35007KT 4000 BR SCT018 FEW025CB 32/28 Q1002 NOSIG
Conditions at: VEGT (GAUHATI (IN-AFB), IN) observed 0430 UTC 18 June 2019
Temperature: 32.0°C (90°F)
Dewpoint: 28.0°C (82°F) [RH = 80%]
Pressure (altimeter): 29.59 inches Hg (1002.0 mb)
Winds: from the N (350 degrees) at 8 MPH (7 knots; 3.6 m/s)
Visibility: 2.49 miles (4.01 km)
Ceiling: at least 12,000 feet AGL
Clouds: scattered clouds at 1800 feet AGL
few clouds at 2500 feet AGL
Weather: BR  (mist)

METAR text: VEGT 180400Z 35007KT 4000 BR SCT018 FEW025CB 32/28 Q1001 NOSIG
Conditions at: VEGT (GAUHATI (IN-AFB), IN) observed 0400 UTC 18 June 2019
Temperature: 32.0°C (90°F)
Dewpoint: 28.0°C (82°F) [RH = 80%]
Pressure (altimeter): 29.56 inches Hg (1001.0 mb)
Winds: from the N (350 degrees) at 8 MPH (7 knots; 3.6 m/s)
Visibility: 2.49 miles (4.01 km)
Ceiling: at least 12,000 feet AGL
Clouds: scattered clouds at 1800 feet AGL
few clouds at 2500 feet AGL
Weather: BR  (mist)

METAR text: VEGT 180330Z 00000KT 4000 BR SCT018 FEW025CB 32/29 Q1001 NOSIG
Conditions at: VEGT (GAUHATI (IN-AFB), IN) observed 0330 UTC 18 June 2019
Temperature: 32.0°C (90°F)
Dewpoint: 29.0°C (84°F) [RH = 84%]
Pressure (altimeter): 29.56 inches Hg (1001.0 mb)
Winds: calm
Visibility: 2.49 miles (4.01 km)
Ceiling: at least 12,000 feet AGL
Clouds: scattered clouds at 1800 feet AGL
few clouds at 2500 feet AGL
Weather: BR  (mist)

METAR text: VEGT 180300Z 01006KT 4000 BR SCT018 FEW025CB 31/29 Q1001 NOSIG
Conditions at: VEGT (GAUHATI (IN-AFB), IN) observed 0300 UTC 18 June 2019
Temperature: 31.0°C (88°F)
Dewpoint: 29.0°C (84°F) [RH = 89%]
Pressure (altimeter): 29.56 inches Hg (1001.0 mb)
Winds: from the N (10 degrees) at 7 MPH (6 knots; 3.1 m/s)
Visibility: 2.49 miles (4.01 km)
Ceiling: at least 12,000 feet AGL
Clouds: scattered clouds at 1800 feet AGL
few clouds at 2500 feet AGL
Weather: BR  (mist)

METAR text: VEGT 180230Z 02006KT 4000 BR SCT018 FEW025CB 32/29 Q1001 NOSIG
Conditions at: VEGT (GAUHATI (IN-AFB), IN) observed 0230 UTC 18 June 2019
Temperature: 32.0°C (90°F)
Dewpoint: 29.0°C (84°F) [RH = 84%]
Pressure (altimeter): 29.56 inches Hg (1001.0 mb)
Winds: from the NNE (20 degrees) at 7 MPH (6 knots; 3.1 m/s)
Visibility: 2.49 miles (4.01 km)
Ceiling: at least 12,000 feet AGL
Clouds: scattered clouds at 1800 feet AGL
few clouds at 2500 feet AGL
Weather: BR  (mist)

METAR text: VEGT 180200Z 05005KT 3000 BR SCT018 FEW025CB BKN100 31/29 Q1001 NOSIG
Conditions at: VEGT (GAUHATI (IN-AFB), IN) observed 0200 UTC 18 June 2019
Temperature: 31.0°C (88°F)
Dewpoint: 29.0°C (84°F) [RH = 89%]
Pressure (altimeter): 29.56 inches Hg (1001.0 mb)
Winds: from the NE (50 degrees) at 6 MPH (5 knots; 2.6 m/s)
Visibility: 1.86 miles (2.99 km)
Ceiling: 10000 feet AGL
Clouds: scattered clouds at 1800 feet AGL
few clouds at 2500 feet AGL
broken clouds at 10000 feet AGL
Weather: BR  (mist)

METAR text: VEGT 180130Z 07004KT 3000 BR SCT018 FEW025CB BKN100 30/28 Q1001 NOSIG
Conditions at: VEGT (GAUHATI (IN-AFB), IN) observed 0130 UTC 18 June 2019
Temperature: 30.0°C (86°F)
Dewpoint: 28.0°C (82°F) [RH = 89%]
Pressure (altimeter): 29.56 inches Hg (1001.0 mb)
Winds: from the ENE (70 degrees) at 5 MPH (4 knots; 2.1 m/s)
Visibility: 1.86 miles (2.99 km)
Ceiling: 10000 feet AGL
Clouds: scattered clouds at 1800 feet AGL
few clouds at 2500 feet AGL
broken clouds at 10000 feet AGL
Weather: BR  (mist)

METAR text: VEGT 180100Z 03006KT 2500 BR SCT018 FEW025CB BKN100 30/28 Q1001 NOSIG
Conditions at: VEGT (GAUHATI (IN-AFB), IN) observed 0100 UTC 18 June 2019
Temperature: 30.0°C (86°F)
Dewpoint: 28.0°C (82°F) [RH = 89%]
Pressure (altimeter): 29.56 inches Hg (1001.0 mb)
Winds: from the NNE (30 degrees) at 7 MPH (6 knots; 3.1 m/s)
Visibility: 1.55 miles (2.49 km)
Ceiling: 10000 feet AGL
Clouds: scattered clouds at 1800 feet AGL
few clouds at 2500 feet AGL
broken clouds at 10000 feet AGL
Weather: BR  (mist)

METAR text: VEGT 180030Z 05004KT 2500 BR SCT018 BKN100 29/28 Q1000 NOSIG
Conditions at: VEGT (GAUHATI (IN-AFB), IN) observed 0030 UTC 18 June 2019
Temperature: 29.0°C (84°F)
Dewpoint: 28.0°C (82°F) [RH = 94%]
Pressure (altimeter): 29.53 inches Hg (1000.0 mb)
Winds: from the NE (50 degrees) at 5 MPH (4 knots; 2.1 m/s)
Visibility: 1.55 miles (2.49 km)
Ceiling: 10000 feet AGL
Clouds: scattered clouds at 1800 feet AGL
broken clouds at 10000 feet AGL
Weather: BR  (mist)

METAR text: VEGT 170000Z 01005KT 2500 BR SCT018 BKN100 29/28 Q1000 NOSIG
Conditions at: VEGT (GAUHATI (IN-AFB), IN) observed 0000 UTC 18 June 2019
Temperature: 29.0°C (84°F)
Dewpoint: 28.0°C (82°F) [RH = 94%]
Pressure (altimeter): 29.53 inches Hg (1000.0 mb)
Winds: from the N (10 degrees) at 6 MPH (5 knots; 2.6 m/s)
Visibility: 1.55 miles (2.49 km)
Ceiling: 10000 feet AGL
Clouds: scattered clouds at 1800 feet AGL
broken clouds at 10000 feet AGL
Weather: BR  (mist)

METAR text: VEGT 172330Z 00000KT 2500 -RA SCT018 BKN090 29/28 Q1001 NOSIG
Conditions at: VEGT (GAUHATI (IN-AFB), IN) observed 2330 UTC 17 June 2019
Temperature: 29.0°C (84°F)
Dewpoint: 28.0°C (82°F) [RH = 94%]
Pressure (altimeter): 29.56 inches Hg (1001.0 mb)
Winds: calm
Visibility: 1.55 miles (2.49 km)
Ceiling: 9000 feet AGL
Clouds: scattered clouds at 1800 feet AGL
broken clouds at 9000 feet AGL
Weather: -RA  (light rain)

METAR text: VEGT 172300Z 00000KT 2500 -RA SCT018 BKN090 29/28 Q1001 NOSIG
Conditions at: VEGT (GAUHATI (IN-AFB), IN) observed 2300 UTC 17 June 2019
Temperature: 29.0°C (84°F)
Dewpoint: 28.0°C (82°F) [RH = 94%]
Pressure (altimeter): 29.56 inches Hg (1001.0 mb)
Winds: calm
Visibility: 1.55 miles (2.49 km)
Ceiling: 9000 feet AGL
Clouds: scattered clouds at 1800 feet AGL
broken clouds at 9000 feet AGL
Weather: -RA  (light rain)

METAR text: VEGT 172230Z 00000KT 2500 -RA SCT018 BKN090 29/28 Q1001 NOSIG
Conditions at: VEGT (GAUHATI (IN-AFB), IN) observed 2230 UTC 17 June 2019
Temperature: 29.0°C (84°F)
Dewpoint: 28.0°C (82°F) [RH = 94%]
Pressure (altimeter): 29.56 inches Hg (1001.0 mb)
Winds: calm
Visibility: 1.55 miles (2.49 km)
Ceiling: 9000 feet AGL
Clouds: scattered clouds at 1800 feet AGL
broken clouds at 9000 feet AGL
Weather: -RA  (light rain)

METAR text: VEGT 172200Z 00000KT 2500 -RA SCT018 BKN090 29/28 Q1001 NOSIG
Conditions at: VEGT (GAUHATI (IN-AFB), IN) observed 2200 UTC 17 June 2019
Temperature: 29.0°C (84°F)
Dewpoint: 28.0°C (82°F) [RH = 94%]
Pressure (altimeter): 29.56 inches Hg (1001.0 mb)
Winds: calm
Visibility: 1.55 miles (2.49 km)
Ceiling: 9000 feet AGL
Clouds: scattered clouds at 1800 feet AGL
broken clouds at 9000 feet AGL
Weather: -RA  (light rain)

METAR text: VEGT 172130Z 00000KT 2500 -RA SCT018 BKN090 29/28 Q1001 NOSIG
Conditions at: VEGT (GAUHATI (IN-AFB), IN) observed 2130 UTC 17 June 2019
Temperature: 29.0°C (84°F)
Dewpoint: 28.0°C (82°F) [RH = 94%]
Pressure (altimeter): 29.56 inches Hg (1001.0 mb)
Winds: calm
Visibility: 1.55 miles (2.49 km)
Ceiling: 9000 feet AGL
Clouds: scattered clouds at 1800 feet AGL
broken clouds at 9000 feet AGL
Weather: -RA  (light rain)

METAR text: VEGT 172100Z 00000KT 3000 BR SCT018 BKN100 30/28 Q1001 NOSIG
Conditions at: VEGT (GAUHATI (IN-AFB), IN) observed 2100 UTC 17 June 2019
Temperature: 30.0°C (86°F)
Dewpoint: 28.0°C (82°F) [RH = 89%]
Pressure (altimeter): 29.56 inches Hg (1001.0 mb)
Winds: calm
Visibility: 1.86 miles (2.99 km)
Ceiling: 10000 feet AGL
Clouds: scattered clouds at 1800 feet AGL
broken clouds at 10000 feet AGL
Weather: BR  (mist)

METAR text: VEGT 172030Z 00000KT 3000 BR SCT018 BKN100 30/28 Q1001 NOSIG
Conditions at: VEGT (GAUHATI (IN-AFB), IN) observed 2030 UTC 17 June 2019
Temperature: 30.0°C (86°F)
Dewpoint: 28.0°C (82°F) [RH = 89%]
Pressure (altimeter): 29.56 inches Hg (1001.0 mb)
Winds: calm
Visibility: 1.86 miles (2.99 km)
Ceiling: 10000 feet AGL
Clouds: scattered clouds at 1800 feet AGL
broken clouds at 10000 feet AGL
Weather: BR  (mist)

METAR text: VEGT 172000Z 00000KT 3000 BR SCT018 BKN100 30/28 Q1001 NOSIG
Conditions at: VEGT (GAUHATI (IN-AFB), IN) observed 2000 UTC 17 June 2019
Temperature: 30.0°C (86°F)
Dewpoint: 28.0°C (82°F) [RH = 89%]
Pressure (altimeter): 29.56 inches Hg (1001.0 mb)
Winds: calm
Visibility: 1.86 miles (2.99 km)
Ceiling: 10000 feet AGL
Clouds: scattered clouds at 1800 feet AGL
broken clouds at 10000 feet AGL
Weather: BR  (mist)

METAR text: VEGT 171830Z 00000KT 3000 BR SCT018 BKN100 30/28 Q1001 NOSIG
Conditions at: VEGT (GAUHATI (IN-AFB), IN) observed 1830 UTC 17 June 2019
Temperature: 30.0°C (86°F)
Dewpoint: 28.0°C (82°F) [RH = 89%]
Pressure (altimeter): 29.56 inches Hg (1001.0 mb)
Winds: calm
Visibility: 1.86 miles (2.99 km)
Ceiling: 10000 feet AGL
Clouds: scattered clouds at 1800 feet AGL
broken clouds at 10000 feet AGL
Weather: BR  (mist)

METAR text: VEGT 171800Z 00000KT 3000 BR SCT018 BKN100 30/28 Q1001 NOSIG
Conditions at: VEGT (GAUHATI (IN-AFB), IN) observed 1800 UTC 17 June 2019
Temperature: 30.0°C (86°F)
Dewpoint: 28.0°C (82°F) [RH = 89%]
Pressure (altimeter): 29.56 inches Hg (1001.0 mb)
Winds: calm
Visibility: 1.86 miles (2.99 km)
Ceiling: 10000 feet AGL
Clouds: scattered clouds at 1800 feet AGL
broken clouds at 10000 feet AGL
Weather: BR  (mist)

METAR text: VEGT 171730Z 00000KT 3000 BR SCT018 BKN100 30/28 Q1001 NOSIG
Conditions at: VEGT (GAUHATI (IN-AFB), IN) observed 1730 UTC 17 June 2019
Temperature: 30.0°C (86°F)
Dewpoint: 28.0°C (82°F) [RH = 89%]
Pressure (altimeter): 29.56 inches Hg (1001.0 mb)
Winds: calm
Visibility: 1.86 miles (2.99 km)
Ceiling: 10000 feet AGL
Clouds: scattered clouds at 1800 feet AGL
broken clouds at 10000 feet AGL
Weather: BR  (mist)

METAR text: VEGT 171700Z 00000KT 3000 BR SCT018 BKN100 30/28 Q1001 NOSIG
Conditions at: VEGT (GAUHATI (IN-AFB), IN) observed 1700 UTC 17 June 2019
Temperature: 30.0°C (86°F)
Dewpoint: 28.0°C (82°F) [RH = 89%]
Pressure (altimeter): 29.56 inches Hg (1001.0 mb)
Winds: calm
Visibility: 1.86 miles (2.99 km)
Ceiling: 10000 feet AGL
Clouds: scattered clouds at 1800 feet AGL
broken clouds at 10000 feet AGL
Weather: BR  (mist)

METAR text: VEGT 171630Z 00000KT 3000 BR SCT018 BKN100 30/28 Q1001 NOSIG
Conditions at: VEGT (GAUHATI (IN-AFB), IN) observed 1630 UTC 17 June 2019
Temperature: 30.0°C (86°F)
Dewpoint: 28.0°C (82°F) [RH = 89%]
Pressure (altimeter): 29.56 inches Hg (1001.0 mb)
Winds: calm
Visibility: 1.86 miles (2.99 km)
Ceiling: 10000 feet AGL
Clouds: scattered clouds at 1800 feet AGL
broken clouds at 10000 feet AGL
Weather: BR  (mist)

METAR text: VEGT 171600Z 00000KT 3000 BR SCT018 BKN100 30/28 Q1001 NOSIG
Conditions at: VEGT (GAUHATI (IN-AFB), IN) observed 1600 UTC 17 June 2019
Temperature: 30.0°C (86°F)
Dewpoint: 28.0°C (82°F) [RH = 89%]
Pressure (altimeter): 29.56 inches Hg (1001.0 mb)
Winds: calm
Visibility: 1.86 miles (2.99 km)
Ceiling: 10000 feet AGL
Clouds: scattered clouds at 1800 feet AGL
broken clouds at 10000 feet AGL
Weather: BR  (mist)

METAR text: VEGT 171530Z 00000KT 3000 BR SCT018 BKN100 31/28 Q1001 NOSIG
Conditions at: VEGT (GAUHATI (IN-AFB), IN) observed 1530 UTC 17 June 2019
Temperature: 31.0°C (88°F)
Dewpoint: 28.0°C (82°F) [RH = 84%]
Pressure (altimeter): 29.56 inches Hg (1001.0 mb)
Winds: calm
Visibility: 1.86 miles (2.99 km)
Ceiling: 10000 feet AGL
Clouds: scattered clouds at 1800 feet AGL
broken clouds at 10000 feet AGL
Weather: BR  (mist)

METAR text: VEGT 171500Z 00000KT 3000 BR SCT018 BKN100 31/28 Q1001 NOSIG
Conditions at: VEGT (GAUHATI (IN-AFB), IN) observed 1500 UTC 17 June 2019
Temperature: 31.0°C (88°F)
Dewpoint: 28.0°C (82°F) [RH = 84%]
Pressure (altimeter): 29.56 inches Hg (1001.0 mb)
Winds: calm
Visibility: 1.86 miles (2.99 km)
Ceiling: 10000 feet AGL
Clouds: scattered clouds at 1800 feet AGL
broken clouds at 10000 feet AGL
Weather: BR  (mist)

METAR text: VEGT 171430Z 00000KT 3500 BR SCT018 BKN100 31/28 Q1001 NOSIG
Conditions at: VEGT (GAUHATI (IN-AFB), IN) observed 1430 UTC 17 June 2019
Temperature: 31.0°C (88°F)
Dewpoint: 28.0°C (82°F) [RH = 84%]
Pressure (altimeter): 29.56 inches Hg (1001.0 mb)
Winds: calm
Visibility: 2.17 miles (3.49 km)
Ceiling: 10000 feet AGL
Clouds: scattered clouds at 1800 feet AGL
broken clouds at 10000 feet AGL
Weather: BR  (mist)

METAR text: VEGT 171400Z 05003KT 4000 BR SCT018 BKN100 31/28 Q1000 BECMG 3000 BR
Conditions at: VEGT (GAUHATI (IN-AFB), IN) observed 1400 UTC 17 June 2019
Temperature: 31.0°C (88°F)
Dewpoint: 28.0°C (82°F) [RH = 84%]
Pressure (altimeter): 29.53 inches Hg (1000.0 mb)
Winds: from the NE (50 degrees) at 3 MPH (3 knots; 1.5 m/s)
Visibility: 2.49 miles (4.01 km)
Ceiling: 10000 feet AGL
Clouds: scattered clouds at 1800 feet AGL
broken clouds at 10000 feet AGL
Weather: BR  (mist)

METAR text: VEGT 171330Z 02003KT 4000 BR SCT018 BKN100 31/28 Q0999 NOSIG
Conditions at: VEGT (GAUHATI (IN-AFB), IN) observed 1330 UTC 17 June 2019
Temperature: 31.0°C (88°F)
Dewpoint: 28.0°C (82°F) [RH = 84%]
Pressure (altimeter): 29.50 inches Hg (999.0 mb)
Winds: from the NNE (20 degrees) at 3 MPH (3 knots; 1.5 m/s)
Visibility: 2.49 miles (4.01 km)
Ceiling: 10000 feet AGL
Clouds: scattered clouds at 1800 feet AGL
broken clouds at 10000 feet AGL
Weather: BR  (mist)

METAR text: VEGT 171300Z 34003KT 4000 BR SCT018 BKN100 31/28 Q0999 NOSIG
Conditions at: VEGT (GAUHATI (IN-AFB), IN) observed 1300 UTC 17 June 2019
Temperature: 31.0°C (88°F)
Dewpoint: 28.0°C (82°F) [RH = 84%]
Pressure (altimeter): 29.50 inches Hg (999.0 mb)
Winds: from the NNW (340 degrees) at 3 MPH (3 knots; 1.5 m/s)
Visibility: 2.49 miles (4.01 km)
Ceiling: 10000 feet AGL
Clouds: scattered clouds at 1800 feet AGL
broken clouds at 10000 feet AGL
Weather: BR  (mist)

METAR text: VEGT 171230Z 01003KT 4000 BR SCT018 BKN100 31/27 Q0998 NOSIG
Conditions at: VEGT (GAUHATI (IN-AFB), IN) observed 1230 UTC 17 June 2019
Temperature: 31.0°C (88°F)
Dewpoint: 27.0°C (81°F) [RH = 79%]
Pressure (altimeter): 29.47 inches Hg (998.0 mb)
Winds: from the N (10 degrees) at 3 MPH (3 knots; 1.5 m/s)
Visibility: 2.49 miles (4.01 km)
Ceiling: 10000 feet AGL
Clouds: scattered clouds at 1800 feet AGL
broken clouds at 10000 feet AGL
Weather: BR  (mist)

METAR text: VEGT 171200Z 05004KT 4000 BR SCT018 BKN100 32/27 Q0998 NOSIG
Conditions at: VEGT (GAUHATI (IN-AFB), IN) observed 1200 UTC 17 June 2019
Temperature: 32.0°C (90°F)
Dewpoint: 27.0°C (81°F) [RH = 75%]
Pressure (altimeter): 29.47 inches Hg (998.0 mb)
Winds: from the NE (50 degrees) at 5 MPH (4 knots; 2.1 m/s)
Visibility: 2.49 miles (4.01 km)
Ceiling: 10000 feet AGL
Clouds: scattered clouds at 1800 feet AGL
broken clouds at 10000 feet AGL
Weather: BR  (mist)

METAR text: VEGT 171130Z 08007KT 4000 HZ SCT018 BKN100 32/27 Q0998 NOSIG
Conditions at: VEGT (GAUHATI (IN-AFB), IN) observed 1130 UTC 17 June 2019
Temperature: 32.0°C (90°F)
Dewpoint: 27.0°C (81°F) [RH = 75%]
Pressure (altimeter): 29.47 inches Hg (998.0 mb)
Winds: from the E (80 degrees) at 8 MPH (7 knots; 3.6 m/s)
Visibility: 2.49 miles (4.01 km)
Ceiling: 10000 feet AGL
Clouds: scattered clouds at 1800 feet AGL
broken clouds at 10000 feet AGL
Weather: HZ  (haze)

METAR text: VEGT 171100Z 35007KT 4000 HZ SCT018 BKN100 33/27 Q0998 NOSIG
Conditions at: VEGT (GAUHATI (IN-AFB), IN) observed 1100 UTC 17 June 2019
Temperature: 33.0°C (91°F)
Dewpoint: 27.0°C (81°F) [RH = 71%]
Pressure (altimeter): 29.47 inches Hg (998.0 mb)
Winds: from the N (350 degrees) at 8 MPH (7 knots; 3.6 m/s)
Visibility: 2.49 miles (4.01 km)
Ceiling: 10000 feet AGL
Clouds: scattered clouds at 1800 feet AGL
broken clouds at 10000 feet AGL
Weather: HZ  (haze)

METAR text: VEGT 171030Z 34008KT 4000 HZ SCT018 BKN100 33/27 Q0999 NOSIG
Conditions at: VEGT (GAUHATI (IN-AFB), IN) observed 1030 UTC 17 June 2019
Temperature: 33.0°C (91°F)
Dewpoint: 27.0°C (81°F) [RH = 71%]
Pressure (altimeter): 29.50 inches Hg (999.0 mb)
Winds: from the NNW (340 degrees) at 9 MPH (8 knots; 4.1 m/s)
Visibility: 2.49 miles (4.01 km)
Ceiling: 10000 feet AGL
Clouds: scattered clouds at 1800 feet AGL
broken clouds at 10000 feet AGL
Weather: HZ  (haze)

METAR text: VEGT 171000Z 07004KT 4000 HZ SCT018 BKN100 33/27 Q0999 NOSIG
Conditions at: VEGT (GAUHATI (IN-AFB), IN) observed 1000 UTC 17 June 2019
Temperature: 33.0°C (91°F)
Dewpoint: 27.0°C (81°F) [RH = 71%]
Pressure (altimeter): 29.50 inches Hg (999.0 mb)
Winds: from the ENE (70 degrees) at 5 MPH (4 knots; 2.1 m/s)
Visibility: 2.49 miles (4.01 km)
Ceiling: 10000 feet AGL
Clouds: scattered clouds at 1800 feet AGL
broken clouds at 10000 feet AGL
Weather: HZ  (haze)

METAR text: VEGT 170930Z 11004KT 4000 HZ SCT018 BKN100 33/27 Q0999 NOSIG
Conditions at: VEGT (GAUHATI (IN-AFB), IN) observed 0930 UTC 17 June 2019
Temperature: 33.0°C (91°F)
Dewpoint: 27.0°C (81°F) [RH = 71%]
Pressure (altimeter): 29.50 inches Hg (999.0 mb)
Winds: from the ESE (110 degrees) at 5 MPH (4 knots; 2.1 m/s)
Visibility: 2.49 miles (4.01 km)
Ceiling: 10000 feet AGL
Clouds: scattered clouds at 1800 feet AGL
broken clouds at 10000 feet AGL
Weather: HZ  (haze)

METAR text: VEGT 170900Z 07004KT 4000 HZ SCT018 BKN100 33/27 Q0999 NOSIG
Conditions at: VEGT (GAUHATI (IN-AFB), IN) observed 0900 UTC 17 June 2019
Temperature: 33.0°C (91°F)
Dewpoint: 27.0°C (81°F) [RH = 71%]
Pressure (altimeter): 29.50 inches Hg (999.0 mb)
Winds: from the ENE (70 degrees) at 5 MPH (4 knots; 2.1 m/s)
Visibility: 2.49 miles (4.01 km)
Ceiling: 10000 feet AGL
Clouds: scattered clouds at 1800 feet AGL
broken clouds at 10000 feet AGL
Weather: HZ  (haze)

METAR text: VEGT 170830Z 09005KT 4000 HZ SCT018 BKN100 34/28 Q0999 NOSIG
Conditions at: VEGT (GAUHATI (IN-AFB), IN) observed 0830 UTC 17 June 2019
Temperature: 34.0°C (93°F)
Dewpoint: 28.0°C (82°F) [RH = 71%]
Pressure (altimeter): 29.50 inches Hg (999.0 mb)
Winds: from the E (90 degrees) at 6 MPH (5 knots; 2.6 m/s)
Visibility: 2.49 miles (4.01 km)
Ceiling: 10000 feet AGL
Clouds: scattered clouds at 1800 feet AGL
broken clouds at 10000 feet AGL
Weather: HZ  (haze)

METAR text: VEGT 170800Z 08003KT 4000 HZ SCT018 BKN100 33/28 Q1000 NOSIG
Conditions at: VEGT (GAUHATI (IN-AFB), IN) observed 0800 UTC 17 June 2019
Temperature: 33.0°C (91°F)
Dewpoint: 28.0°C (82°F) [RH = 75%]
Pressure (altimeter): 29.53 inches Hg (1000.0 mb)
Winds: from the E (80 degrees) at 3 MPH (3 knots; 1.5 m/s)
Visibility: 2.49 miles (4.01 km)
Ceiling: 10000 feet AGL
Clouds: scattered clouds at 1800 feet AGL
broken clouds at 10000 feet AGL
Weather: HZ  (haze)

METAR text: VEGT 170730Z 01004KT 4000 BR SCT018 BKN100 33/29 Q1000 NOSIG
Conditions at: VEGT (GAUHATI (IN-AFB), IN) observed 0730 UTC 17 June 2019
Temperature: 33.0°C (91°F)
Dewpoint: 29.0°C (84°F) [RH = 80%]
Pressure (altimeter): 29.53 inches Hg (1000.0 mb)
Winds: from the N (10 degrees) at 5 MPH (4 knots; 2.1 m/s)
Visibility: 2.49 miles (4.01 km)
Ceiling: 10000 feet AGL
Clouds: scattered clouds at 1800 feet AGL
broken clouds at 10000 feet AGL
Weather: BR  (mist)

METAR text: VEGT 170700Z 02005KT 4000 BR SCT018 FEW025CB OVC090 32/28 Q1000 NOSIG
Conditions at: VEGT (GAUHATI (IN-AFB), IN) observed 0700 UTC 17 June 2019
Temperature: 32.0°C (90°F)
Dewpoint: 28.0°C (82°F) [RH = 80%]
Pressure (altimeter): 29.53 inches Hg (1000.0 mb)
Winds: from the NNE (20 degrees) at 6 MPH (5 knots; 2.6 m/s)
Visibility: 2.49 miles (4.01 km)
Ceiling: 9000 feet AGL
Clouds: scattered clouds at 1800 feet AGL
few clouds at 2500 feet AGL
overcast cloud deck at 9000 feet AGL
Weather: BR  (mist)

Forecast for: VEGT (GAUHATI (IN-AFB), IN)
Text: TAF VEGT 181700Z 1818/1903 00000KT 3000 BR FEW020 SCT100
Forecast period: 1800 UTC 18 June 2019 to 0300 UTC 19 June 2019
Forecast type: FROM: standard forecast or significant change
Winds: calm
Visibility: 1.86 miles (2.99 km)
Ceiling: at least 12,000 feet AGL
Clouds: few clouds at 2000 feet AGL
scattered clouds at 10000 feet AGL
Weather: BR  (mist)
Text: TEMPO 1900/1903 22010KT 1500 U2013TSRA SCT018 FEW025CB BKN090
Forecast period: 0000 to 0300 UTC 19 June 2019
Forecast type: TEMPORARY: The following changes expected for less than half the time period
Winds: from the SW (220 degrees) at 12 MPH (10 knots; 5.1 m/s)
Visibility: 0.93 miles (1.50 km)
Ceiling: 9000 feet AGL
Clouds: scattered clouds at 1800 feet AGL
few clouds at 2500 feet AGL
broken clouds at 9000 feet AGL
Weather: TSRA  (rain associated with thunderstorm(s))